LiveATC.Net - Listen to live air traffic control over the Internet!
Airport/ARTCC Code
Frequency Search
(e.g., 124.400, 128.75)
Site-wide search
 


Browse Feeds
Top 50 Feeds
Coverage Map
Bad Weather Areas

LiveATC FAQ
Offer LiveATC feed
Contact LiveATC.net
Press Inquiries

LiveATC on iPhone
LiveATC on Android

Windows Phone
Windows 8/10

LiveATC Mobile
(Mobile browser)

ATC Audio Archives
Interesting Recordings

LiveATC Forums

Home Page
About LiveATC.net
Make a Donation
Terms of Use
Privacy Policy

Canadian Air Freqs

AIRMETs/SIGMETs

FAA Airport Status
Nat'l Airspace Status
Arrival Demand Charts


Server Software By:
Icecast.org
Liquidsoap

Select an area of interest:
U.S. Feeds: Class B Airports | Class C Airports | Class D/Other Airports | ARTCC (Centers)
International Feeds: Canada | Europe | Oceania | Asia | South America | North/Central America | Africa
Misc Feeds: HF Feeds
Search by ICAO/IATA airport code:   (e.g., kbos, kjfk, lax, eham, etc.)


Currently Available Live Feeds: 2539
Status Updated: Thu Dec 12 2019 12:23:38 UTC


NOTICE

Unauthorized use prohibited. See LiveATC.net Terms of Service

South America Airport Feeds

 

SABE Gnd/Twr/App (Archives)
Buenos Aires, Argentina

Feed Status: UP
Listen in your browser - HTML5 player(in browser, HTML5)
Click here to listen with your own player(launches your MP3 player)

SABE 121200Z 23009G20KT CAVOK 23/05 Q1007 TEMPO 24015G25KT

SABE Flight Activity (Flightaware)

Listeners: 1 out of 671 total

Aerolineas Argentinas Ops: 131.950
Aerolineas Argentinas Ops: 131.100
Aeroparque Ground: 121.900
Aeroparque Tower: 120.600
Aeroparque Tower: 118.250
Aeroparque Tower: 128.850
Aeroparque Tower: 118.850
Aeroparque Tower: 129.300
Air to Air: 123.450
Baires: 125.900
Baires: 125.300
Baires: 124.900
Cordoba South: 126.500
Ezeiza Ground: 121.750
Ezeiza North: 133.350
Ezeiza North: 124.500
Ezeiza North: 125.600
Ezeiza North: 135.500
Ezeiza South: 124.100
Ezeiza South: 125.200
LAN Ops: 131.700

SANT Tower/Apps (Archives)
Tucuman, Argentina

Feed Status: UP
Listen in your browser - HTML5 player(in browser, HTML5)
Click here to listen with your own player(launches your MP3 player)

SANT 121100Z 23011KT CAVOK 25/20 Q1009

SANT Flight Activity (Flightaware)

Listeners: 0 out of 671 total

Aeroclub Tucuman: 119.000
Aerolineas Argentinas SOC Salta: 131.100
Aerolineas Argentinas SOC Tucuman: 131.950
Air To Air: 123.450
Andes Lineas Aereas: 132.000
Campo Arenal: 130.950
Catamarca Tower: 118.150
Copa Airlines: 129.400
Cordoba Centro Norte: 125.100
Cordoba Centro Sur: 126.500
Emergency/Guard: 121.500
Lan Argentina Operaciones: 131.700
Lan Peru: 131.300
Salta Tower: 128.850
Santiago del Estero Tower: 118.700
Taca Peru: 126.450
Termas de Rio Hondo: 118.200
Termas de Rio Hondo: 119.850
Tucuman Ground: 121.750
Tucuman Ground: 121.750
Tucuman Tower: 118.350
Tucuman Tower: 119.500

SASA Twr/App (Archives)
Salta, Argentina

Feed Status: UP
Listen in your browser - HTML5 player(in browser, HTML5)
Click here to listen with your own player(launches your MP3 player)

SASA 121200Z 00000KT CAVOK 24/16 Q1013

SASA Flight Activity (Flightaware)

Listeners: 0 out of 671 total

Cordoba Approach (North): 125.100
Salta Approach: 124.600
Salta Tower: 126.000
Salta Tower/Ground: 128.850

SAZN Tower (Archives)
Neuquen, Argentina

Feed Status: UP
Listen in your browser - HTML5 player(in browser, HTML5)
Click here to listen with your own player(launches your MP3 player)

SAZN 121100Z 23011KT CAVOK 13/M01 Q1020

SAZN Flight Activity (Flightaware)

Listeners: 0 out of 671 total

Neuquen Tower/Approach: 119.800

SAZS Gnd/Twr/App (Archives)
Rio Negro, Argentina

Feed Status: UP
Listen in your browser - HTML5 player(in browser, HTML5)
Click here to listen with your own player(launches your MP3 player)

SAZS 121100Z 29011KT 230V310 CAVOK 07/M04 Q1019

SAZS Flight Activity (Flightaware)

Listeners: 1 out of 671 total

Bariloche Ground: 118.650
Bariloche Twr/App: 119.100
Chapelco Tower/Approach: 119.600
Comodoro Rivadavia Control: 125.500
Emergency: 121.500
Ezeiza South: 125.200
Puerto Mont Radar North: 121.300
Puerto Mont Radar South: 128.300
Puerto Mont Radio: 126.900

SBBI Gnd/Twr
Curitiba, Brazil

Feed Status: DOWN
Offline since: 2019-11-23 18:42:22 UTC

SBBI 121100Z 33008KT 9999 BKN012 21/17 Q1014

Bacacheri Ground: 121.800
Bacacheri Tower: 118.900

SBBV Approach (Archives)
Boa Vista, Brazil

Feed Status: UP
Listen in your browser - HTML5 player(in browser, HTML5)
Click here to listen with your own player(launches your MP3 player)

SBBV 121200Z 09008KT 9999 SCT008 BKN030 OVC070 26/22 Q1011

SBBV Flight Activity (Flightaware)

Listeners: 1 out of 671 total

Boa Vista Approach: 120.100

SBBV Tower (Archives)
Boa Vista, Brazil

Feed Status: UP
Listen in your browser - HTML5 player(in browser, HTML5)
Click here to listen with your own player(launches your MP3 player)

SBBV 121200Z 09008KT 9999 SCT008 BKN030 OVC070 26/22 Q1011

SBBV Flight Activity (Flightaware)

Listeners: 4 out of 671 total

Boa Vista Tower: 118.100

SBCT Gnd/Twr/App (Archives)
Curitiba, Brazil

Feed Status: UP
Listen in your browser - HTML5 player(in browser, HTML5)
Click here to listen with your own player(launches your MP3 player)

SBCT 121200Z 31009KT 9999 SCT019 22/16 Q1014

SBCT Flight Activity (Flightaware)

Listeners: 5 out of 671 total

Curitiba Approach: 119.950
Curitiba Ground: 121.900
Curitiba Tower: 118.150
Curitiba Tower: 118.900

SBDN Twr/App (Archives)
Presidente Prudente/Sao Paulo, Brazil

Feed Status: UP
Listen in your browser - HTML5 player(in browser, HTML5)
Click here to listen with your own player(launches your MP3 player)

SBDN 121100Z 08004KT 9000 OVC005 21/20 Q1011

SBDN Flight Activity (Flightaware)

Listeners: 4 out of 671 total

Air-to-Air: 123.450
Curitiba Sector 13: 133.595
Prudente Approach: 118.450
Prudente Tower: 125.450

SBEG Tower/App (Archives)
Manaus, Brazil

Feed Status: UP
Listen in your browser - HTML5 player(in browser, HTML5)
Click here to listen with your own player(launches your MP3 player)

SBEG 121200Z 20005KT 9999 BKN007 BKN100 26/25 Q1010

SBEG Flight Activity (Flightaware)

Listeners: 0 out of 671 total

Emergency/Guard: 121.500
Manaus Approach : 119.250
Manaus Approach: 120.400
Manaus Approach: 119.700
Manaus Tower: 118.300

SBFI Twr/App/Ctr/Misc (Archives)
Foz do Iguacu, Brazil

Feed Status: UP
Listen in your browser - HTML5 player(in browser, HTML5)
Click here to listen with your own player(launches your MP3 player)

SBFI 121200Z 03010KT 9999 BKN015 25/21 Q1010

SBFI Flight Activity (Flightaware)

Listeners: 2 out of 671 total

Asuncion Center (Paraguay): 126.900
Asuncion Center (Paraguay): 128.400
Curitiba Center: 127.200
Curitiba Center: 125.800
Emergency/Guard: 121.500
Foz do Iguacu Approach/Departure: 120.300
Foz do Iguacu Approach/Departure: 119.150
Foz do Iguacu Tower: 118.800
Guarani Approach (Paraguay): 119.300
Puerto Iguazu - Cataratas Tower (Argentina) : 120.700
Resistencia Center (Argentina): 124.300
UNICOM: 123.450

SBFZ Twr/App/Center (Archives)
Fortaleza, Brazil

Feed Status: UP
Listen in your browser - HTML5 player(in browser, HTML5)
Click here to listen with your own player(launches your MP3 player)

SBFZ 121200Z 08013KT 9999 BKN023 FEW026TCU 29/22 Q1011

SBFZ Flight Activity (Flightaware)

Listeners: 2 out of 671 total

ACC-RE (Fortaleza Sector): 125.150
ACC-RE (Fortaleza Sector): 126.350
ACC-RE (Fortaleza Sector): 135.250
Fortaleza Approach: 133.000
Fortaleza Tower: 129.000

SBGO Gnd/Twr/App (Archives)
Goiania, Brazil

Feed Status: UP
Listen in your browser - HTML5 player(in browser, HTML5)
Click here to listen with your own player(launches your MP3 player)

SBGO 121200Z VRB02KT 9999 FEW020 BKN090 26/21 Q1015

SBGO Flight Activity (Flightaware)

Listeners: 4 out of 671 total

Anapolis Approach: 119.150
Anapolis Approach: 120.550
Anapolis Approach: 133.000
Anapolis Approach: 129.450
Emergency/Guard: 121.500
Goiania Ground: 121.700
Goiania Tower: 118.700
Goiania Tower: 121.050

SBJP Twr/Control/Airlines
Joao Pessoa, Brazil

Feed Status: DOWN
Offline since: 2019-12-12 10:43:22 UTC

SBJP 121200Z 14010KT 9999 BKN020 28/22 Q1012

AZUL: 130.900
GOL: 131.225
Joao Pessoa Tower: 118.300
Recife Control: 119.500
TAM: 130.500

SBJU Tower/Center (Archives)
Juazeiro do Norte, Brazil

Feed Status: UP
Listen in your browser - HTML5 player(in browser, HTML5)
Click here to listen with your own player(launches your MP3 player)

SBJU 121100Z 00000KT 9999 BKN020 27/20 Q1015

SBJU Flight Activity (Flightaware)

Listeners: 1 out of 671 total

Pilot-to-Pilot: 123.450
Radio Juazeiro: 131.750
Recife Center: 135.250
Recife Center: 125.150

SBKP Tower #1 (Archives)
Campinas, Brazil

Feed Status: UP
Listen in your browser - HTML5 player(in browser, HTML5)
Click here to listen with your own player(launches your MP3 player)

SBKP 121200Z 35004KT 9999 SCT015 BKN070 22/19 Q1013

SBKP Flight Activity (Flightaware)

Listeners: 2 out of 671 total

Campinas Tower: 118.250

SBKP Tower #2 (Archives)
Campinas, Brazil

Feed Status: UP
Listen in your browser - HTML5 player(in browser, HTML5)
Click here to listen with your own player(launches your MP3 player)

SBKP 121200Z 35004KT 9999 SCT015 BKN070 22/19 Q1013

SBKP Flight Activity (Flightaware)

Listeners: 0 out of 671 total

Campinas Tower: 118.250

SBLO Gnd/Twr/App (Archives)
Londrina, Brazil

Feed Status: UP
Listen in your browser - HTML5 player(in browser, HTML5)
Click here to listen with your own player(launches your MP3 player)

SBLO 121110Z 00000KT 5000 BR BKN005 19/19 Q1013

SBLO Flight Activity (Flightaware)

Listeners: 2 out of 671 total

Londrina Approach: 129.700
Londrina Ground: 119.550
Londrina Tower: 118.400

SBMG Twr/App/Misc (Archives)
Maringa, Brazil

Feed Status: UP
Listen in your browser - HTML5 player(in browser, HTML5)
Click here to listen with your own player(launches your MP3 player)

SBMG 121100Z 08003KT 050V120 9999 4000S BCFG FEW001 22/18 Q1010

SBMG Flight Activity (Flightaware)

Listeners: 1 out of 671 total

Air to Air: 123.450
Londrina Approach: 129.700
Maringa Tower: 118.750

SBMK RDO/Center (Archives)
Montes Claros, Brazil

Feed Status: UP
Listen in your browser - HTML5 player(in browser, HTML5)
Click here to listen with your own player(launches your MP3 player)

SBMK Flight Activity (Flightaware)

Listeners: 0 out of 671 total

Brasilia Center (Sector 15): 127.300
Montes Claros RDO: 131.700

SBMQ Tower/App/Center (Archives)
Macapa, Brazil

Feed Status: UP
Listen in your browser - HTML5 player(in browser, HTML5)
Click here to listen with your own player(launches your MP3 player)

SBMQ 121200Z 05007KT 9999 SCT020 SCT070 26/26 Q1011

SBMQ Flight Activity (Flightaware)

Listeners: 0 out of 671 total

Amazonico Center: 123.950
Amazonico Center: 128.000
Macapa Approach: 119.000
Macapa Tower: 118.000

SBNF Tower
Navegantes, Brazil

Feed Status: DOWN
Offline since: 2019-12-10 20:00:23 UTC

SBNF 121200Z 32003KT 9999 SCT017 27/23 Q1008

Navegantes Tower: 118.200

SBPA Gnd/Twr/App
Porto Alegre, Brazil

Feed Status: DOWN
Offline since: 2019-11-17 22:23:40 UTC

SBPA 121200Z 31010KT 280V340 CAVOK 30/21 Q1005

BACO (Canoas) Ground: 121.700
BACO (Canoas) Tower: 122.800
BACO (Canoas) Tower: 118.500
Emergency/Guard: 121.500
Porto Alegre Approach Sector 2: 119.000
Porto Alegre Approach Sector 1: 120.100
Porto Alegre Approach Sector 3: 120.550
Porto Alegre Approach Sector 4: 128.900
Porto Alegre Center: 126.750
Porto Alegre Center: 127.400
Porto Alegre Center: 135.850
Porto Alegre Center: 128.450
Salgado Filho Ground: 121.900
Salgado Filho Tower: 118.100

SBPL RDO (Archives)
Petrolina, Brazil

Feed Status: UP
Listen in your browser - HTML5 player(in browser, HTML5)
Click here to listen with your own player(launches your MP3 player)

SBPL 121100Z 13011KT 9999 BKN025 26/18 Q1014

SBPL Flight Activity (Flightaware)

Listeners: 2 out of 671 total

Petrolina RDO: 125.700

SBRF App 129.60
Recife, Brazil

Feed Status: DOWN
Offline since: 2019-12-12 12:11:40 UTC

SBRF 121200Z 11008KT 9999 BKN025 30/21 Q1012

Recife Approach: 129.600

SBRF Gol Ops
Recife, Brazil

Feed Status: DOWN
Offline since: 2019-12-12 12:11:40 UTC

SBRF 121200Z 11008KT 9999 BKN025 30/21 Q1012

Gol Ops: 131.225

SBRF Ground
Recife, Brazil

Feed Status: DOWN
Offline since: 2019-12-12 12:19:23 UTC

SBRF 121200Z 11008KT 9999 BKN025 30/21 Q1012

Recife Ground: 121.850

SBRF LATAM Ops
Recife, Brazil

Feed Status: DOWN
Offline since: 2019-12-12 12:11:23 UTC

SBRF 121200Z 11008KT 9999 BKN025 30/21 Q1012

LATAM Ops: 130.500

SBRF Recife ACC
Recife, Brazil

Feed Status: DOWN
Offline since: 2019-12-12 12:19:23 UTC

SBRF 121200Z 11008KT 9999 BKN025 30/21 Q1012

Recife Center: 128.700
Recife Center: 133.650
Recife Center: 134.800

SBRF Tower
Recife, Brazil

Feed Status: DOWN
Offline since: 2019-12-12 12:11:23 UTC

SBRF 121200Z 11008KT 9999 BKN025 30/21 Q1012

Recife Tower: 125.250
Recife Tower: 118.350
Recife Tower: 118.900

SBRP Tower/Center (Archives)
Ribeirao Preto, Brazil

Feed Status: UP
Listen in your browser - HTML5 player(in browser, HTML5)
Click here to listen with your own player(launches your MP3 player)

SBRP 121100Z 00000KT 9999 FEW008 BKN040 23/20 Q1012

SBRP Flight Activity (Flightaware)

Listeners: 2 out of 671 total

Leite Lopes Tower: 118.000
Pirassununga Center (North): 119.550

SBSN Twr/App/ACC (Archives)
Santarem, Brazil

Feed Status: UP
Listen in your browser - HTML5 player(in browser, HTML5)
Click here to listen with your own player(launches your MP3 player)

SBSN 121200Z 10011KT 9999 FEW015 28/23 Q1010

SBSN Flight Activity (Flightaware)

Listeners: 0 out of 671 total

Brasilia Center/ACC: 123.650
Brasilia Center/ACC: 125.050
Santarem Approach: 119.300
Santarem Tower: 118.100

SBSR AFIS/App/Center (Archives)
Sao Jose do Rio Preto, Brazil

Feed Status: UP
Listen in your browser - HTML5 player(in browser, HTML5)
Click here to listen with your own player(launches your MP3 player)

SBSR 121100Z 02003KT 4000 BR OVC004 22/21 Q1012

SBSR Flight Activity (Flightaware)

Listeners: 1 out of 671 total

Academia Approach (North Sector): 119.750
Academia Approach (North Sector): 120.400
Brasilia Center: 135.150
Rio Preto Radio AFIS: 130.850

SBTE Twr/App (Archives)
Teresina, Brazil

Feed Status: UP
Listen in your browser - HTML5 player(in browser, HTML5)
Click here to listen with your own player(launches your MP3 player)

SBTE 121100Z 02006KT 9999 SCT020 28/23 Q1010

SBTE Flight Activity (Flightaware)

Listeners: 1 out of 671 total

Teresina Approach: 119.600
Teresina Tower: 118.800

SBRE Recife ACC (Archives)
Paulo Afonso, Brazil

Feed Status: UP
Listen in your browser - HTML5 player(in browser, HTML5)
Click here to listen with your own player(launches your MP3 player)

SBRE Flight Activity (Flightaware)

Listeners: 0 out of 671 total

Recife Center (ACC): 125.400
Recife Center (ACC): 125.450
Recife Center (ACC): 126.850
Recife Center (ACC): 133.650
Recife Center (ACC): 134.500
Recife Center (ACC): 134.900

SBUF AFIS/Center (Archives)
Paulo Afonso, Brazil

Feed Status: UP
Listen in your browser - HTML5 player(in browser, HTML5)
Click here to listen with your own player(launches your MP3 player)

SBUF 111900Z 16005KT 9999 FEW023 35/13 Q1008

SBUF Flight Activity (Flightaware)

Listeners: 0 out of 671 total

Paulo Afonso Radio: 125.850
Recife Center: 133.650
Recife Center: 134.500
Recife Center: 125.450

SBQV AFIS (Archives)
Vitoria da Conquista, Brazil

Feed Status: UP
Listen in your browser - HTML5 player(in browser, HTML5)
Click here to listen with your own player(launches your MP3 player)

SBQV Flight Activity (Flightaware)

Listeners: 0 out of 671 total

Conquista AFIS: 130.850
Despacho Azul: 131.875
Despacho Passaredo: 132.000

SBVT Gnd/Twr/App
Vitoria, Brazil

Feed Status: DOWN
Offline since: 2019-12-11 18:53:40 UTC

SBVT 121100Z 01012KT 9999 FEW025 27/21 Q1012

SBVT Approach: 119.850
SBVT Ground: 121.950
SBVT Tower: 118.100

SCEL Gnd/Twr/Radar (Archives)
Santiago, Chile

Feed Status: UP
Listen in your browser - HTML5 player(in browser, HTML5)
Click here to listen with your own player(launches your MP3 player)

SCEL 121200Z 03003KT 340V080 CAVOK 20/06 Q1014 NOSIG

SCEL Flight Activity (Flightaware)

Listeners: 4 out of 671 total

Santiago Authorizations: 121.700
Santiago Control (Lat 3323S North): 128.100
Santiago Control (Lat 3323S South): 126.300
Santiago Ground (Primary): 122.200
Santiago Ground (Secondary): 122.500
Santiago Radar: 135.400
Santiago Radar (Arrival, Primary): 129.700
Santiago Radar (Arrival, Secondary): 119.700
Santiago Radar (Arrival, Secondary): 123.800
Santiago Radar (Departure, Primary): 121.100
Santiago Radar (Departure, Secondary): 123.800
Santiago Radar (Information, Primary): 122.400
Santiago Radar (Information, Secondary): 120.800
Santiago Radar (Information, Secondary): 123.800
Santiago Tower (Primary): 118.100
Santiago Tower (Secondary): 118.350
SCTB Tobalaba Tower: 118.700

SEGU App/Dep/Info (Archives)
Guayaquil, Ecuador

Feed Status: UP
Listen in your browser - HTML5 player(in browser, HTML5)
Click here to listen with your own player(launches your MP3 player)

SEGU 121200Z 21008KT 9999 BKN030 BKN100 24/19 Q1011 NOSIG RMK A2986

SEGU Flight Activity (Flightaware)

Listeners: 0 out of 671 total

Guayaquil Approach: 120.700
Guayaquil Approach (Secondary): 119.300
Guayaquil Info: 126.900

SEGU Gnd/Twr (Archives)
Guayaquil, Ecuador

Feed Status: UP
Listen in your browser - HTML5 player(in browser, HTML5)
Click here to listen with your own player(launches your MP3 player)

SEGU 121200Z 21008KT 9999 BKN030 BKN100 24/19 Q1011 NOSIG RMK A2986

SEGU Flight Activity (Flightaware)

Listeners: 0 out of 671 total

Guayaquil Ground: 121.900
Guayaquil Ground (Secondary): 121.700
Guayaquil Tower: 118.300
Guayaquil Tower (Secondary): 118.900

SEGU Gnd/Twr/App (Archives)
Guayaquil, Ecuador

Feed Status: UP
Listen in your browser - HTML5 player(in browser, HTML5)
Click here to listen with your own player(launches your MP3 player)

SEGU 121200Z 21008KT 9999 BKN030 BKN100 24/19 Q1011 NOSIG RMK A2986

SEGU Flight Activity (Flightaware)

Listeners: 0 out of 671 total

Guayaquil Approach: 120.700
Guayaquil Ground: 121.900
Guayaquil Tower: 118.300

SEGU Guayaquil Center (Archives)
Guayaquil, Ecuador

Feed Status: UP
Listen in your browser - HTML5 player(in browser, HTML5)
Click here to listen with your own player(launches your MP3 player)

SEGU 121200Z 21008KT 9999 BKN030 BKN100 24/19 Q1011 NOSIG RMK A2986

SEGU Flight Activity (Flightaware)

Listeners: 0 out of 671 total

Guayaquil Center: 127.950
Guayaquil Center: 128.300
Guayaquil Center (Secondary): 128.000
Guayaquil Center (Secondary): 123.900

SEQM ATIS (Archives)
Quito, Ecuador

Feed Status: UP
Listen in your browser - HTML5 player(in browser, HTML5)
Click here to listen with your own player(launches your MP3 player)

SEQM 121200Z 22002KT 9999 BCFG FEW006 SCT040 BKN080 13/11 Q1026 NOSIG RMK A3031

SEQM Flight Activity (Flightaware)

Listeners: 0 out of 671 total

Quito ATIS: 118.700

SEQM Gnd/Twr/App (Archives)
Quito, Ecuador

Feed Status: UP
Listen in your browser - HTML5 player(in browser, HTML5)
Click here to listen with your own player(launches your MP3 player)

SEQM 121200Z 22002KT 9999 BCFG FEW006 SCT040 BKN080 13/11 Q1026 NOSIG RMK A3031

SEQM Flight Activity (Flightaware)

Listeners: 0 out of 671 total

Quito Approach/Departure: 119.700
Quito Approach/Departure: 121.200
Quito Ground: 121.900
Quito Tower: 118.100
Quito Tower (Secondary): 118.350

SEQM Tower (Archives)
Quito, Ecuador

Feed Status: UP
Listen in your browser - HTML5 player(in browser, HTML5)
Click here to listen with your own player(launches your MP3 player)

SEQM 121200Z 22002KT 9999 BCFG FEW006 SCT040 BKN080 13/11 Q1026 NOSIG RMK A3031

SEQM Flight Activity (Flightaware)

Listeners: 0 out of 671 total

Quito Tower: 118.100
Quito Tower (Secondary): 118.350

SJOY CTAF (Archives)
Palmeira, Brazil

Feed Status: UP
Listen in your browser - HTML5 player(in browser, HTML5)
Click here to listen with your own player(launches your MP3 player)

SJOY Flight Activity (Flightaware)

Listeners: 0 out of 671 total


SKBO Del/Gnd/Twr/App
Bogota, Colombia

Feed Status: DOWN
Offline since: 2019-11-24 17:09:23 UTC

SKBO 121200Z VRB02KT 8000 SCT015 SCT070 10/09 A3030 NOSIG RMK HZ

Bogota Approach: 119.500
Bogota Clearance Delivery: 121.600
Bogota Departure (North): 121.300
Bogota Departure (South): 119.650
Bogota Ground (North): 121.800
Bogota Ground (South): 122.750
Bogota Information: 126.900
Bogota Tower (North): 118.100
Bogota Tower (South): 118.250
Guaymaral Ground: 121.700
Guaymaral Tower: 118.800

SKBQ Approach (Archives)
Barranquilla, Colombia

Feed Status: UP
Listen in your browser - HTML5 player(in browser, HTML5)
Click here to listen with your own player(launches your MP3 player)

SKBQ 121200Z 01007KT CAVOK 26/23 A2983 NOSIG

SKBQ Flight Activity (Flightaware)

Listeners: 1 out of 671 total

Barranquilla Approach/Departure: 119.100

SPJC Approach (Archives)
Lima, Peru

Feed Status: UP
Listen in your browser - HTML5 player(in browser, HTML5)
Click here to listen with your own player(launches your MP3 player)

SPJC 121200Z 17005KT 9999 OVC030 19/18 Q1013 NOSIG RMK TN19.3 PP000

SPJC Flight Activity (Flightaware)

Listeners: 0 out of 671 total

Lima Approach: 119.700

SPJC Ground (Archives)
Lima, Peru

Feed Status: UP
Listen in your browser - HTML5 player(in browser, HTML5)
Click here to listen with your own player(launches your MP3 player)

SPJC 121200Z 17005KT 9999 OVC030 19/18 Q1013 NOSIG RMK TN19.3 PP000

SPJC Flight Activity (Flightaware)

Listeners: 0 out of 671 total

Lima Ground: 121.900

SPJC Tower (Archives)
Lima, Peru

Feed Status: UP
Listen in your browser - HTML5 player(in browser, HTML5)
Click here to listen with your own player(launches your MP3 player)

SPJC 121200Z 17005KT 9999 OVC030 19/18 Q1013 NOSIG RMK TN19.3 PP000

SPJC Flight Activity (Flightaware)

Listeners: 1 out of 671 total

Lima Tower: 118.100

SPST Tower (Archives)
Tarapoto, Peru

Feed Status: UP
Listen in your browser - HTML5 player(in browser, HTML5)
Click here to listen with your own player(launches your MP3 player)

SPST 121200Z 00000KT 9999 SCT025 26/23 Q1008 RMK BIRD HAZARD RWY 17/35 TN23.5 PP000

SPST Flight Activity (Flightaware)

Listeners: 0 out of 671 total

Tarapoto Tower: 118.400

SSBL Air to Air (Archives)
Blumenau, Brazil

Feed Status: UP
Listen in your browser - HTML5 player(in browser, HTML5)
Click here to listen with your own player(launches your MP3 player)

SSBL Flight Activity (Flightaware)

Listeners: 0 out of 671 total

Air to Air: 123.450

SUMU Twr/App (Archives)
Montevideo, Uruguay

Feed Status: UP
Listen in your browser - HTML5 player(in browser, HTML5)
Click here to listen with your own player(launches your MP3 player)

SUMU 121200Z 26016KT CAVOK 24/11 Q1004 NOSIG

SUMU Flight Activity (Flightaware)

Listeners: 0 out of 671 total

SUMU Approach: 119.200
SUMU Tower: 118.100

SUMU Twr/App/Radar (Archives)
Montevideo, Uruguay

Feed Status: UP
Listen in your browser - HTML5 player(in browser, HTML5)
Click here to listen with your own player(launches your MP3 player)

SUMU 121200Z 26016KT CAVOK 24/11 Q1004 NOSIG

SUMU Flight Activity (Flightaware)

Listeners: 0 out of 671 total

SUMU Approach: 120.200
SUMU Approach: 119.200
SUMU Info: 121.800
SUMU Informacion: 121.800
SUMU Radar Control: 128.500
SUMU Radar Control: 126.300
SUMU Radar Control: 128.000
SUMU Tower: 118.100

SUPU/SUPC Misc (Archives)
Paysandu, Uruguay

Feed Status: UP
Listen in your browser - HTML5 player(in browser, HTML5)
Click here to listen with your own player(launches your MP3 player)

SUPU 040900Z 10005KT 9999 FEW020TCU BKN070 FEW200 23/23 Q1010

SUPU Flight Activity (Flightaware)

Listeners: 0 out of 671 total

Chalkling Tower: 118.700
Paysandu Tower: 118.200

SVPR Twr/App/FIR (Archives)
Ciudad Guayana, Venezuela

Feed Status: UP
Listen in your browser - HTML5 player(in browser, HTML5)
Click here to listen with your own player(launches your MP3 player)

SVPR Flight Activity (Flightaware)

Listeners: 0 out of 671 total

Emergency/Guard: 121.500
FIR 6: 126.000
Guayana Approach (Primary): 119.500
Guayana Approach (Secondary): 120.300
Guayana Tower (Primary): 118.000
Guayana Tower (Secondary): 123.500
SMC: 121.900

SVVA Gnd/Twr/App
Valencia, Venezuela

Feed Status: DOWN
Offline since: 2019-12-07 05:00:06 UTC

SVVA 121102Z AUTO 24001KT NCD 18/17 Q1012

Libertador Approach: 119.300
Valencia Ground: 121.900
Valencia Tower: 121.200

TNCA Twr/Apron/FIR (Archives)
Oranjestad, Aruba

Feed Status: UP
Listen in your browser - HTML5 player(in browser, HTML5)
Click here to listen with your own player(launches your MP3 player)

TNCA 121200Z 05006KT 9999 FEW017 25/23 Q1012 NOSIG

TNCA Flight Activity (Flightaware)

Listeners: 0 out of 671 total

Beatrix Ground (Apron): 121.600
Beatrix Tower: 120.900
Beatrix Tower (secondary): 118.000
Curacao Control: 127.100
Emergency/Guard: 121.500
Search/Rescue: 123.100

TNCB Tower (Archives)
Kralendijk, Bonaire

Feed Status: UP
Listen in your browser - HTML5 player(in browser, HTML5)
Click here to listen with your own player(launches your MP3 player)

TNCB 121055Z AUTO 10003KT 9999 SCT020/// BKN024/// BKN029/// 24/23 Q1011

TNCB Flight Activity (Flightaware)

Listeners: 1 out of 671 total

Bonaire Tower: 118.700

TNCC Curacao Control (Archives)
Willemstad, Curacao

Feed Status: UP
Listen in your browser - HTML5 player(in browser, HTML5)
Click here to listen with your own player(launches your MP3 player)

TNCC 121144Z AUTO 10003KT 060V140 9999 -RA SCT018 25/23 Q1012 NOSIG

TNCC Flight Activity (Flightaware)

Listeners: 0 out of 671 total

Curacao Control: 124.100
Curacao Control: 127.100

TNCC Tower/Radar (Archives)
Willemstad, Curacao

Feed Status: UP
Listen in your browser - HTML5 player(in browser, HTML5)
Click here to listen with your own player(launches your MP3 player)

TNCC 121144Z AUTO 10003KT 060V140 9999 -RA SCT018 25/23 Q1012 NOSIG

TNCC Flight Activity (Flightaware)

Listeners: 0 out of 671 total

Hato Radar: 119.600
Hato Tower: 118.300

TNCC Twr/Radar/Control (Archives)
Willemstad, Curacao

Feed Status: UP
Listen in your browser - HTML5 player(in browser, HTML5)
Click here to listen with your own player(launches your MP3 player)

TNCC 121144Z AUTO 10003KT 060V140 9999 -RA SCT018 25/23 Q1012 NOSIG

TNCC Flight Activity (Flightaware)

Listeners: 0 out of 671 total

Curacao Control: 127.100
Hato Radar: 119.600
Hato Tower: 118.300

TNCE Info (Archives)
Oranjestad, Sint Eustatius

Feed Status: UP
Listen in your browser - HTML5 player(in browser, HTML5)
Click here to listen with your own player(launches your MP3 player)

TNCE 121055Z AUTO 06014KT //// // ///////// 25/21 Q1014 RE//

TNCE Flight Activity (Flightaware)

Listeners: 1 out of 671 total

Statia Info: 118.100

TTCP Gnd/Twr/App (Archives)
Scarborough, Trinidad and Tobago

Feed Status: UP
Listen in your browser - HTML5 player(in browser, HTML5)
Click here to listen with your own player(launches your MP3 player)

TTCP 121100Z 00000KT 9999 VCSH FEW016 SCT036 24/22 Q1010 NOSIG RMK VCSH-NE

TTCP Flight Activity (Flightaware)

Listeners: 0 out of 671 total

Piarco Approach: 119.000
Robinson Ground: 121.700
Robinson Tower: 118.400

TTPP Apron/Gnd/Twr (Archives)
Port of Spain, Trinidad and Tobago

Feed Status: UP
Listen in your browser - HTML5 player(in browser, HTML5)
Click here to listen with your own player(launches your MP3 player)

TTPP 121100Z 00000KT 9999 VCSH FEW016 23/22 Q1011 NOSIG RMK VCSH-NE

TTPP Flight Activity (Flightaware)

Listeners: 2 out of 671 total

Piarco Apron: 121.750
Piarco Ground: 121.900
Piarco Tower: 118.100

TTPP Piarco Approach (Archives)
Port of Spain, Trinidad and Tobago

Feed Status: UP
Listen in your browser - HTML5 player(in browser, HTML5)
Click here to listen with your own player(launches your MP3 player)

TTPP 121100Z 00000KT 9999 VCSH FEW016 23/22 Q1011 NOSIG RMK VCSH-NE

TTPP Flight Activity (Flightaware)

Listeners: 0 out of 671 total

Piarco Approach: 119.550
Piarco Approach: 119.000
Piarco Approach (backup): 124.000

TTPP Piarco Center (Archives)
Port of Spain, Trinidad and Tobago

Feed Status: UP
Listen in your browser - HTML5 player(in browser, HTML5)
Click here to listen with your own player(launches your MP3 player)

TTPP 121100Z 00000KT 9999 VCSH FEW016 23/22 Q1011 NOSIG RMK VCSH-NE

TTPP Flight Activity (Flightaware)

Listeners: 0 out of 671 total

Piarco Center: 123.700
Piarco Center (Oceanic): 126.500
Piarco Center (South Sector): 125.400
Piarco Center Oceanic (Backup): 133.100